CYAW/YAW METAR and TAF weather

Enter ICAO airport designator
Station Type Date Time Source
CYAW METAR 2020/09/25 20:38 UTC NOAA

CYAW 252038Z 21005KT 15SM FEW250 19/08 A3009 RMK CI2 DA616FT LAST OBS/NEXT 280900 UTC SLP190


Station Type Date Time Source
CYAW Decoded METAR 2020/09/25 20:38 UTC NOAA

Shearwater, N. S., Canada (CYAW) 44-38N 063-30W 51M
Sep 25, 2020 - 04:38 PM EDT / 2020.09.25 2038 UTC
Wind: from the SSW (210 degrees) at 6 MPH (5 KT):0
Visibility: 15 mile(s):0
Sky conditions: mostly clear
Temperature: 66 F (19 C)
Dew Point: 46 F (8 C)
Relative Humidity: 48%
Pressure (altimeter): 30.09 in. Hg (1018 hPa)
ob: CYAW 252038Z 21005KT 15SM FEW250 19/08 A3009 RMK CI2 DA616FT LAST OBS/NEXT 280900 UTC SLP190
cycle: 20

Station Type Date Time Source
CYAW TAF 2020/09/25 18:35 UTC NOAA

TAF CYAW 251730Z 2518/2606 17008KT P6SM SKC
BECMG 2520/2522 VRB03KT
FM260200 VRB03KT P6SM SCT005
RMK NXT FCST BY 260000Z

Example: see airport list